Time;durP1;ratioP1;P1;durP2;ratioP2;P2;SDS_P1;SDS_P2;PMS_P1;PMS_P2;Temp;Humidity;BMP_temperature;BMP_pressure;BME280_temperature;BME280_humidity;BME280_pressure;Samples;Min_cycle;Max_cycle;Signal;HPM_P1;HPM_P2
2021/03/24 00:00:44;;;;;;;13.48;6.82;;;11.10;75.50;;;;;;5087391;28;20032;-63
2021/03/24 00:03:11;;;;;;;23.58;9.13;;;11.10;75.70;;;;;;5072987;28;20032;-63
2021/03/24 00:05:39;;;;;;;28.13;12.48;;;11.10;75.60;;;;;;5073279;28;20096;-63
2021/03/24 00:08:06;;;;;;;21.52;10.52;;;11.10;75.40;;;;;;5073101;28;20028;-63
2021/03/24 00:10:33;;;;;;;15.52;7.97;;;11.20;75.50;;;;;;5072699;28;20029;-64
2021/03/24 00:13:00;;;;;;;22.27;10.18;;;11.20;75.50;;;;;;5072878;28;20039;-63
2021/03/24 00:15:27;;;;;;;22.40;11.85;;;11.20;75.50;;;;;;5072959;28;20025;-63
2021/03/24 00:17:54;;;;;;;28.98;12.68;;;11.20;75.30;;;;;;5085394;28;20036;-63
2021/03/24 00:20:25;;;;;;;23.75;12.52;;;11.20;75.40;;;;;;5073893;28;20035;-63
2021/03/24 00:22:51;;;;;;;23.50;10.98;;;11.20;75.20;;;;;;5072862;28;20539;-63
2021/03/24 00:25:17;;;;;;;23.40;11.50;;;11.20;75.40;;;;;;5072134;28;20408;-63
2021/03/24 00:27:47;;;;;;;27.30;12.95;;;11.30;75.50;;;;;;5072899;28;20119;-63
2021/03/24 00:30:15;;;;;;;23.52;11.15;;;11.30;75.50;;;;;;5071881;28;20128;-63
2021/03/24 00:32:41;;;;;;;38.28;12.98;;;11.20;75.40;;;;;;5072909;28;20029;-63
2021/03/24 00:35:08;;;;;;;23.58;10.70;;;11.20;75.40;;;;;;5072764;28;20468;-63
2021/03/24 00:37:35;;;;;;;30.67;14.90;;;11.30;75.50;;;;;;5071216;28;20052;-63
2021/03/24 00:40:01;;;;;;;30.85;14.40;;;11.30;75.50;;;;;;5072651;28;20043;-63
2021/03/24 00:42:26;;;;;;;25.35;13.18;;;11.30;75.50;;;;;;5072524;28;20109;-63
2021/03/24 00:44:52;;;;;;;31.23;12.50;;;11.20;75.50;;;;;;5072254;28;20121;-64
2021/03/24 00:47:18;;;;;;;23.08;11.05;;;11.30;75.60;;;;;;5072693;28;20025;-63
2021/03/24 00:49:44;;;;;;;29.30;15.30;;;11.20;75.50;;;;;;5063444;28;20032;-64
2021/03/24 00:52:10;;;;;;;29.48;13.50;;;11.20;75.40;;;;;;5076928;28;20052;-63
2021/03/24 00:54:36;;;;;;;24.17;10.00;;;11.20;75.50;;;;;;5072570;28;20468;-63
2021/03/24 00:57:02;;;;;;;25.92;11.80;;;11.20;75.70;;;;;;5072103;28;20135;-63
2021/03/24 00:59:28;;;;;;;31.13;14.48;;;11.20;75.70;;;;;;5072096;28;20039;-63
2021/03/24 01:01:54;;;;;;;20.95;10.13;;;11.20;75.70;;;;;;5072641;28;20024;-63
2021/03/24 01:04:19;;;;;;;30.75;13.88;;;11.20;75.70;;;;;;5072157;28;20499;-63
2021/03/24 01:06:45;;;;;;;33.20;15.77;;;11.30;75.70;;;;;;5072045;28;20115;-63
2021/03/24 01:09:11;;;;;;;25.38;11.52;;;11.30;75.60;;;;;;5072188;28;20024;-63
2021/03/24 01:11:39;;;;;;;26.17;12.73;;;11.30;75.70;;;;;;5072162;28;20040;-63
2021/03/24 01:14:07;;;;;;;24.25;12.80;;;11.20;75.60;;;;;;5072062;28;20033;-63
2021/03/24 01:16:33;;;;;;;33.25;15.68;;;11.20;75.60;;;;;;5073836;28;20040;-63
2021/03/24 01:18:59;;;;;;;37.67;16.20;;;11.20;75.70;;;;;;5084371;28;20373;-63
2021/03/24 01:21:25;;;;;;;20.02;9.85;;;11.20;75.80;;;;;;5071755;28;20038;-63
2021/03/24 01:23:51;;;;;;;31.00;11.30;;;11.20;75.90;;;;;;5072233;28;20024;-63
2021/03/24 01:26:18;;;;;;;24.67;7.70;;;11.20;76.00;;;;;;5071815;28;20427;-63
2021/03/24 01:28:43;;;;;;;29.27;12.27;;;11.20;76.00;;;;;;5072062;28;20028;-63
2021/03/24 01:31:10;;;;;;;8.13;4.78;;;11.20;76.10;;;;;;5072453;28;20115;-63
2021/03/24 01:33:35;;;;;;;33.05;13.63;;;11.20;76.30;;;;;;5071265;28;20056;-63
2021/03/24 01:36:02;;;;;;;31.20;12.70;;;11.10;76.20;;;;;;5072167;28;20079;-63
2021/03/24 01:38:28;;;;;;;11.55;6.03;;;11.20;76.30;;;;;;5071969;28;20032;-63
2021/03/24 01:40:59;;;;;;;21.20;7.82;;;11.10;76.30;;;;;;5071682;28;20024;-63
2021/03/24 01:43:26;;;;;;;39.97;16.02;;;11.10;76.40;;;;;;5074105;28;20471;-63
2021/03/24 01:46:10;;;;;;;25.10;11.20;;;11.10;76.20;;;;;;5075539;28;20020;-63
2021/03/24 01:48:37;;;;;;;43.10;18.25;;;11.10;76.30;;;;;;5075280;28;20036;-63
2021/03/24 01:51:06;;;;;;;41.33;20.13;;;11.10;76.30;;;;;;5075597;28;20055;-63
2021/03/24 01:53:35;;;;;;;28.65;13.18;;;11.10;76.40;;;;;;5075698;28;20033;-63
2021/03/24 01:56:00;;;;;;;16.55;7.53;;;11.10;76.50;;;;;;5074956;28;20036;-63
2021/03/24 01:58:27;;;;;;;24.00;10.93;;;11.10;76.60;;;;;;5075598;28;20070;-63
2021/03/24 02:00:56;;;;;;;41.08;17.83;;;11.00;76.60;;;;;;5075158;28;20519;-63
2021/03/24 02:03:25;;;;;;;29.85;9.38;;;11.00;76.40;;;;;;5074933;28;20032;-63
2021/03/24 02:05:53;;;;;;;30.05;11.95;;;11.00;76.60;;;;;;5075658;28;20040;-63
2021/03/24 02:08:27;;;;;;;34.72;16.45;;;11.00;76.70;;;;;;5075468;28;20028;-63
2021/03/24 02:11:16;;;;;;;25.38;11.82;;;11.00;76.60;;;;;;5075378;28;20028;-63
2021/03/24 02:14:11;;;;;;;18.50;7.68;;;11.00;76.80;;;;;;5075327;28;20032;-63
2021/03/24 02:16:45;;;;;;;27.13;12.52;;;11.00;76.80;;;;;;5077279;28;20061;-63
2021/03/24 02:19:21;;;;;;;22.75;8.70;;;11.00;76.60;;;;;;5086010;28;20036;-63
2021/03/24 02:21:47;;;;;;;20.92;9.88;;;10.90;76.70;;;;;;5074860;28;20074;-63
2021/03/24 02:24:59;;;;;;;34.20;14.52;;;10.90;76.80;;;;;;5074669;28;20479;-63
2021/03/24 02:27:35;;;;;;;26.30;10.70;;;10.90;76.90;;;;;;5075138;28;20032;-63
2021/03/24 02:30:04;;;;;;;24.60;11.35;;;10.90;77.00;;;;;;5056311;28;20480;-63
2021/03/24 02:32:34;;;;;;;23.13;10.68;;;10.90;77.00;;;;;;5082329;28;20059;-63
2021/03/24 02:35:04;;;;;;;18.15;8.82;;;10.90;77.00;;;;;;5080964;28;20480;-63
2021/03/24 02:37:34;;;;;;;24.77;12.02;;;10.80;77.00;;;;;;5074557;28;20055;-63
2021/03/24 02:40:03;;;;;;;43.08;17.83;;;10.80;77.20;;;;;;5074869;28;20430;-64
2021/03/24 02:42:29;;;;;;;36.80;13.45;;;10.80;76.90;;;;;;5074343;28;20162;-63
2021/03/24 02:44:55;;;;;;;36.83;17.33;;;10.80;77.00;;;;;;5074327;28;20486;-63
2021/03/24 02:47:21;;;;;;;34.63;15.48;;;10.90;77.00;;;;;;5074616;28;20052;-63
2021/03/24 02:49:48;;;;;;;24.48;10.23;;;10.90;77.00;;;;;;5074467;28;20040;-63
2021/03/24 02:52:14;;;;;;;20.45;9.73;;;10.90;77.10;;;;;;5074235;28;20028;-63
2021/03/24 02:54:42;;;;;;;19.98;9.02;;;10.90;77.10;;;;;;5074450;28;20048;-63
2021/03/24 02:57:08;;;;;;;29.83;11.68;;;10.90;77.00;;;;;;5074012;28;20059;-63
2021/03/24 02:59:33;;;;;;;25.20;11.63;;;10.90;77.00;;;;;;5074010;28;20028;-63
2021/03/24 03:02:15;;;;;;;36.08;14.15;;;10.80;77.00;;;;;;5074695;28;20119;-63
2021/03/24 03:04:52;;;;;;;38.38;15.20;;;10.90;77.00;;;;;;5074298;28;20029;-63
2021/03/24 03:07:30;;;;;;;36.28;13.32;;;10.80;77.00;;;;;;5074501;28;20051;-63
2021/03/24 03:10:00;;;;;;;25.85;9.43;;;10.80;77.20;;;;;;5074217;28;20033;-63
2021/03/24 03:12:48;;;;;;;34.72;16.40;;;10.80;77.30;;;;;;5074072;28;20111;-63
2021/03/24 03:15:25;;;;;;;17.15;8.52;;;10.80;77.20;;;;;;5074367;28;20037;-63
2021/03/24 03:17:58;;;;;;;18.70;9.82;;;10.80;77.30;;;;;;5086646;28;20074;-63
2021/03/24 03:20:35;;;;;;;18.13;8.80;;;10.80;77.40;;;;;;5073869;28;20111;-63
2021/03/24 03:23:08;;;;;;;14.10;6.75;;;10.80;77.50;;;;;;5074311;28;20369;-63
2021/03/24 03:25:35;;;;;;;;;;;10.70;77.30;;;;;;5074376;28;20040;-63
2021/03/24 03:28:06;;;;;;;17.10;6.40;;;10.70;77.30;;;;;;5073453;28;19912;-63
2021/03/24 03:30:36;;;;;;;38.00;17.13;;;10.70;77.40;;;;;;5073816;28;20032;-63
2021/03/24 03:33:05;;;;;;;10.00;6.07;;;10.70;77.40;;;;;;5073138;28;20064;-63
2021/03/24 03:35:34;;;;;;;34.60;14.55;;;10.60;77.60;;;;;;5073615;28;20035;-63
2021/03/24 03:38:01;;;;;;;14.98;7.85;;;10.70;77.70;;;;;;5073884;28;20038;-63
2021/03/24 03:40:31;;;;;;;17.05;7.70;;;10.60;77.70;;;;;;5073063;28;20036;-63
2021/03/24 03:42:58;;;;;;;41.35;16.50;;;10.60;77.70;;;;;;5073758;28;20024;-63
2021/03/24 03:45:25;;;;;;;17.85;8.93;;;10.60;77.60;;;;;;5078612;28;20032;-63
2021/03/24 03:47:52;;;;;;;13.70;8.40;;;10.60;77.60;;;;;;5079194;28;20025;-63
2021/03/24 03:50:21;;;;;;;25.45;10.90;;;10.60;77.60;;;;;;5077048;28;20029;-63
2021/03/24 03:52:54;;;;;;;30.58;12.93;;;10.60;77.60;;;;;;5084912;28;20028;-63
2021/03/24 03:55:33;;;;;;;24.67;10.45;;;10.60;77.70;;;;;;5081638;28;20034;-63
2021/03/24 03:58:03;;;;;;;31.60;12.90;;;10.60;77.80;;;;;;5087351;28;20140;-63
2021/03/24 04:00:35;;;;;;;19.50;8.70;;;10.50;77.70;;;;;;5073414;28;20028;-63
2021/03/24 04:03:25;;;;;;;16.17;8.90;;;10.60;77.90;;;;;;5072467;28;20032;-63
2021/03/24 04:05:57;;;;;;;31.60;14.02;;;10.50;77.80;;;;;;5086410;28;20494;-63
2021/03/24 04:08:30;;;;;;;19.63;10.20;;;10.50;77.80;;;;;;5092707;28;20024;-63
2021/03/24 04:10:59;;;;;;;29.40;10.75;;;10.50;77.80;;;;;;5080047;28;20041;-63
2021/03/24 04:13:28;;;;;;;39.63;16.63;;;10.50;77.90;;;;;;5072938;28;20032;-63
2021/03/24 04:15:56;;;;;;;34.00;11.50;;;10.50;77.80;;;;;;5072962;28;20044;-63
2021/03/24 04:18:32;;;;;;;31.60;14.55;;;10.50;77.90;;;;;;5072812;28;20472;-63
2021/03/24 04:21:00;;;;;;;16.30;7.40;;;10.50;77.90;;;;;;5072624;28;20039;-63
2021/03/24 04:23:29;;;;;;;17.40;9.20;;;10.50;77.90;;;;;;5090530;28;20024;-63
2021/03/24 04:26:00;;;;;;;27.33;11.90;;;10.40;77.90;;;;;;5093140;28;20483;-63
2021/03/24 04:28:31;;;;;;;26.48;11.25;;;10.40;77.90;;;;;;5075656;28;20039;-63
2021/03/24 04:31:03;;;;;;;30.25;12.70;;;10.40;78.00;;;;;;5072354;28;20036;-63
2021/03/24 04:33:29;;;;;;;28.70;12.40;;;10.40;78.00;;;;;;5072919;28;20430;-63
2021/03/24 04:35:57;;;;;;;43.72;18.27;;;10.40;78.00;;;;;;5084911;28;20028;-63
2021/03/24 04:38:30;;;;;;;39.45;15.75;;;10.40;77.90;;;;;;5074528;28;20039;-63
2021/03/24 04:41:01;;;;;;;28.98;12.98;;;10.40;77.90;;;;;;5072837;28;20035;-63
2021/03/24 04:43:31;;;;;;;17.58;8.10;;;10.40;77.90;;;;;;5072120;28;20073;-63
2021/03/24 04:46:08;;;;;;;30.15;12.32;;;10.40;77.90;;;;;;5072538;28;20039;-63
2021/03/24 04:48:40;;;;;;;24.50;10.98;;;10.40;77.90;;;;;;5073427;28;20040;-62
2021/03/24 04:51:11;;;;;;;28.35;10.63;;;10.40;78.00;;;;;;5086525;28;20028;-63
2021/03/24 04:53:44;;;;;;;22.83;8.82;;;10.40;78.60;;;;;;5087421;28;20142;-63
2021/03/24 04:56:17;;;;;;;33.72;15.50;;;10.40;78.00;;;;;;5072104;28;20043;-63
2021/03/24 04:58:46;;;;;;;29.98;13.77;;;10.40;77.90;;;;;;5087362;28;20078;-63
2021/03/24 05:01:39;;;;;;;44.25;17.35;;;10.30;77.90;;;;;;5089315;28;20069;-63
2021/03/24 05:04:12;;;;;;;33.03;13.90;;;10.40;77.90;;;;;;5091131;28;20039;-62
2021/03/24 05:06:48;;;;;;;21.42;10.82;;;10.40;77.90;;;;;;5091381;28;20036;-63
2021/03/24 05:09:15;;;;;;;52.45;22.30;;;10.40;78.00;;;;;;5091147;28;20475;-63
2021/03/24 05:12:13;;;;;;;57.72;23.42;;;10.40;77.90;;;;;;5091713;28;20043;-63
2021/03/24 05:14:51;;;;;;;50.75;24.23;;;10.40;77.90;;;;;;5076114;28;20036;-63
2021/03/24 05:17:26;;;;;;;54.75;24.42;;;10.40;78.40;;;;;;5092094;28;20054;-63
2021/03/24 05:19:58;;;;;;;52.88;21.33;;;10.40;77.80;;;;;;5095027;28;20066;-64
2021/03/24 05:22:38;;;;;;;57.88;27.23;;;10.40;77.80;;;;;;5077979;28;20020;-63
2021/03/24 05:25:13;;;;;;;58.70;26.38;;;10.40;77.70;;;;;;5095643;28;20028;-63
2021/03/24 05:28:04;;;;;;;57.55;24.55;;;10.40;77.60;;;;;;5095444;28;20043;-63
2021/03/24 05:30:33;;;;;;;66.78;25.30;;;10.50;77.60;;;;;;5083984;28;20123;-63
2021/03/24 05:33:34;;;;;;;39.20;17.08;;;10.50;77.50;;;;;;5094806;28;20059;-63
2021/03/24 05:36:20;;;;;;;44.50;19.38;;;10.50;77.50;;;;;;5091691;28;20066;-63
2021/03/24 05:38:48;;;;;;;32.75;13.30;;;10.50;77.50;;;;;;5081893;28;20040;-63
2021/03/24 05:41:33;;;;;;;41.05;17.98;;;10.50;77.50;;;;;;5095267;28;20078;-63
2021/03/24 05:44:10;;;;;;;26.08;11.70;;;10.40;77.40;;;;;;5095696;28;20028;-63
2021/03/24 05:46:51;;;;;;;59.83;27.33;;;10.40;77.50;;;;;;5094544;28;20032;-63
2021/03/24 05:49:33;;;;;;;42.65;14.65;;;10.40;77.30;;;;;;5095862;28;20024;-63
2021/03/24 05:52:36;;;;;;;23.15;10.10;;;10.40;77.40;;;;;;5094808;28;20032;-63
2021/03/24 05:55:34;;;;;;;46.97;20.10;;;10.30;77.40;;;;;;5083835;28;20040;-63
2021/03/24 05:58:27;;;;;;;43.00;20.63;;;10.30;77.50;;;;;;5075421;28;20048;-63
2021/03/24 06:01:24;;;;;;;59.75;25.45;;;10.30;77.60;;;;;;5074867;28;20031;-63
2021/03/24 06:03:52;;;;;;;59.65;24.13;;;10.30;77.60;;;;;;5070515;28;20040;-63
2021/03/24 06:06:55;;;;;;;46.17;21.02;;;10.20;78.20;;;;;;5081059;28;20375;-63
2021/03/24 06:10:02;;;;;;;59.60;25.90;;;10.20;77.70;;;;;;5077787;28;20036;-63
2021/03/24 06:12:49;;;;;;;40.75;16.38;;;10.20;77.80;;;;;;5008163;28;20476;-63
2021/03/24 06:15:36;;;;;;;56.50;25.25;;;10.20;77.80;;;;;;5056937;28;20024;-63
2021/03/24 06:18:20;;;;;;;29.13;12.77;;;10.20;77.80;;;;;;5075425;28;20033;-63
2021/03/24 06:20:58;;;;;;;37.15;16.88;;;10.20;77.90;;;;;;5075059;28;20033;-63
2021/03/24 06:23:37;;;;;;;29.50;13.52;;;10.10;77.90;;;;;;5074869;28;20039;-63
2021/03/24 06:26:30;;;;;;;39.22;16.92;;;10.10;78.00;;;;;;5075033;28;20033;-63
2021/03/24 06:29:35;;;;;;;26.02;11.35;;;10.10;78.10;;;;;;5074409;28;20043;-63
2021/03/24 06:32:01;;;;;;;59.58;24.20;;;10.10;78.20;;;;;;5075084;28;20025;-63
2021/03/24 06:35:04;;;;;;;48.10;18.75;;;10.00;78.10;;;;;;5074892;28;20391;-63
2021/03/24 06:37:57;;;;;;;49.95;22.80;;;10.10;78.30;;;;;;5078999;28;20028;-63
2021/03/24 06:40:48;;;;;;;50.60;21.30;;;10.00;78.30;;;;;;5087633;28;20024;-63
2021/03/24 06:43:16;;;;;;;29.90;13.75;;;10.00;78.40;;;;;;5092962;28;20545;-63
2021/03/24 06:45:50;;;;;;;56.90;25.25;;;10.00;78.40;;;;;;5089868;28;20035;-66
2021/03/24 06:48:48;;;;;;;21.38;10.43;;;10.00;78.50;;;;;;5090026;28;20108;-65
2021/03/24 06:51:42;;;;;;;20.60;7.03;;;10.00;78.70;;;;;;5089887;28;20105;-63
2021/03/24 06:54:08;;;;;;;;;;;9.90;78.60;;;;;;5091145;28;20025;-63
2021/03/24 06:57:05;;;;;;;35.80;16.17;;;9.90;78.60;;;;;;5092707;28;19923;-63
2021/03/24 06:59:57;;;;;;;59.70;25.83;;;9.90;78.70;;;;;;5093031;28;20028;-63
2021/03/24 07:02:37;;;;;;;31.92;12.35;;;10.00;78.90;;;;;;5090810;28;20534;-63
2021/03/24 07:05:09;;;;;;;28.05;13.05;;;9.90;79.00;;;;;;5090698;28;20035;-63
2021/03/24 07:07:58;;;;;;;56.63;26.23;;;9.90;78.90;;;;;;5090976;28;20470;-64
2021/03/24 07:10:52;;;;;;;31.65;15.82;;;10.00;78.90;;;;;;5091409;28;20040;-64
2021/03/24 07:13:30;;;;;;;34.63;13.43;;;10.00;79.00;;;;;;5090668;28;20024;-64
2021/03/24 07:16:33;;;;;;;30.27;13.73;;;10.00;79.00;;;;;;5085046;28;20040;-63
2021/03/24 07:19:31;;;;;;;67.40;28.38;;;10.00;79.00;;;;;;5039914;28;20032;-63
2021/03/24 07:22:15;;;;;;;13.23;7.75;;;10.00;78.90;;;;;;5084710;28;20047;-64
2021/03/24 07:24:56;;;;;;;48.22;18.77;;;10.00;78.90;;;;;;5090610;28;20504;-64
2021/03/24 07:27:59;;;;;;;37.50;17.75;;;10.00;79.50;;;;;;5090874;28;20013;-64
2021/03/24 07:30:37;;;;;;;50.00;16.77;;;10.00;78.90;;;;;;5090720;28;20391;-64
2021/03/24 07:33:05;;;;;;;24.83;10.38;;;10.00;78.90;;;;;;5083712;28;20369;-64
2021/03/24 07:35:59;;;;;;;46.35;19.85;;;10.00;79.00;;;;;;5090003;28;20055;-64
2021/03/24 07:38:44;;;;;;;;;;;10.00;79.10;;;;;;5089643;28;20040;-63
2021/03/24 07:41:40;;;;;;;22.13;9.07;;;9.90;79.10;;;;;;5089309;28;20389;-64
2021/03/24 07:44:22;;;;;;;57.90;23.15;;;9.90;79.20;;;;;;5089757;28;20032;-63
2021/03/24 07:47:25;;;;;;;17.92;9.32;;;9.90;79.30;;;;;;5089128;28;20467;-64
2021/03/24 07:50:11;;;;;;;34.75;17.17;;;9.90;79.60;;;;;;5088912;28;20028;-64
2021/03/24 07:52:51;;;;;;;24.60;12.07;;;9.90;79.60;;;;;;5089332;28;20444;-64
2021/03/24 07:55:26;;;;;;;22.23;8.95;;;9.90;79.70;;;;;;5081206;28;20035;-64
2021/03/24 07:58:03;;;;;;;35.80;13.50;;;9.90;79.80;;;;;;5087286;28;20067;-64
2021/03/24 08:00:40;;;;;;;28.20;12.82;;;9.80;79.80;;;;;;5088396;28;20059;-65
2021/03/24 08:03:17;;;;;;;27.65;11.60;;;9.90;79.90;;;;;;5089208;28;20049;-64
2021/03/24 08:05:56;;;;;;;38.20;17.50;;;9.90;80.00;;;;;;5088928;28;20518;-65
2021/03/24 08:08:44;;;;;;;16.33;8.50;;;9.90;80.00;;;;;;5089644;28;20081;-65
2021/03/24 08:11:37;;;;;;;24.40;11.23;;;9.90;80.70;;;;;;5088875;28;20110;-62
2021/03/24 08:14:27;;;;;;;44.28;18.77;;;9.90;80.10;;;;;;5085006;28;20028;-65
2021/03/24 08:17:10;;;;;;;33.67;14.35;;;9.90;80.20;;;;;;5090073;28;20427;-65
2021/03/24 08:19:56;;;;;;;34.35;15.38;;;10.00;80.30;;;;;;5089840;28;20016;-65
2021/03/24 08:22:47;;;;;;;30.00;13.93;;;9.90;80.50;;;;;;5088922;28;21266;-65
2021/03/24 08:25:37;;;;;;;35.58;14.60;;;9.90;80.50;;;;;;5088270;28;20028;-65
2021/03/24 08:28:21;;;;;;;30.23;13.68;;;9.90;80.60;;;;;;5091136;28;20036;-65
2021/03/24 08:30:50;;;;;;;31.38;12.82;;;9.90;80.70;;;;;;5089654;28;20499;-65
2021/03/24 08:33:24;;;;;;;18.50;10.13;;;9.90;80.70;;;;;;5089754;28;20128;-63
2021/03/24 08:35:53;;;;;;;24.30;11.55;;;9.90;80.80;;;;;;5086932;28;20039;-63
2021/03/24 08:38:31;;;;;;;40.00;13.57;;;9.90;80.90;;;;;;5089865;28;20511;-63
2021/03/24 08:41:06;;;;;;;26.67;9.80;;;9.90;80.90;;;;;;5089977;28;20040;-65
2021/03/24 08:44:02;;;;;;;37.50;17.77;;;9.90;81.00;;;;;;5089593;28;20490;-65
2021/03/24 08:46:54;;;;;;;28.77;12.63;;;9.90;81.00;;;;;;5080637;28;20036;-65
2021/03/24 08:49:30;;;;;;;21.45;10.80;;;10.00;81.10;;;;;;5069409;28;20032;-63
2021/03/24 08:52:14;;;;;;;26.50;11.35;;;10.00;81.20;;;;;;5093469;28;20032;-64
2021/03/24 08:54:50;;;;;;;37.00;14.57;;;10.00;81.30;;;;;;5087904;28;20055;-64
2021/03/24 08:57:40;;;;;;;20.30;10.63;;;10.10;81.30;;;;;;5089047;28;20056;-64
2021/03/24 09:00:11;;;;;;;29.60;13.35;;;10.10;81.40;;;;;;5089375;28;20062;-64
2021/03/24 09:03:05;;;;;;;32.05;13.52;;;10.10;81.50;;;;;;5089528;28;20032;-63
2021/03/24 09:05:36;;;;;;;31.27;14.23;;;10.10;81.60;;;;;;5088773;28;20092;-64
2021/03/24 09:08:23;;;;;;;31.20;11.35;;;10.10;81.50;;;;;;5072292;28;20025;-64
2021/03/24 09:11:18;;;;;;;39.83;17.63;;;10.20;81.60;;;;;;5076299;28;20073;-63
2021/03/24 09:14:09;;;;;;;22.10;10.20;;;10.20;81.60;;;;;;5082161;28;20036;-64
2021/03/24 09:16:56;;;;;;;35.13;15.27;;;10.20;81.80;;;;;;5074471;28;20545;-65
2021/03/24 09:19:43;;;;;;;27.27;10.95;;;10.20;82.00;;;;;;5076727;28;20460;-65
2021/03/24 09:22:43;;;;;;;38.75;16.70;;;10.20;82.10;;;;;;5074806;28;20044;-63
2021/03/24 09:25:47;;;;;;;32.03;15.13;;;10.20;82.10;;;;;;5079595;28;20100;-64
2021/03/24 09:28:34;;;;;;;31.52;13.73;;;10.20;82.10;;;;;;5070217;28;20036;-64
2021/03/24 09:31:21;;;;;;;26.65;13.57;;;10.30;82.10;;;;;;5085718;28;20039;-64
2021/03/24 09:33:52;;;;;;;40.35;17.23;;;10.30;82.20;;;;;;5080311;28;20037;-65
2021/03/24 09:36:20;;;;;;;16.67;6.18;;;10.30;82.10;;;;;;5075024;28;20072;-64
2021/03/24 09:38:48;;;;;;;32.90;15.05;;;10.30;82.20;;;;;;5085150;28;20032;-64
2021/03/24 09:41:39;;;;;;;40.08;14.88;;;10.40;82.30;;;;;;5086608;28;20028;-64
2021/03/24 09:44:11;;;;;;;19.55;9.73;;;10.50;82.30;;;;;;5075011;28;20418;-64
2021/03/24 09:46:44;;;;;;;22.52;10.85;;;10.50;82.10;;;;;;5087105;28;20032;-64
2021/03/24 09:49:29;;;;;;;32.35;13.18;;;10.50;82.10;;;;;;5086563;28;20028;-66
2021/03/24 09:52:29;;;;;;;27.40;9.90;;;10.50;82.20;;;;;;5080563;28;20056;-64
2021/03/24 09:55:21;;;;;;;26.35;9.85;;;10.60;82.20;;;;;;5073793;28;20029;-64
2021/03/24 09:58:23;;;;;;;34.30;15.18;;;10.60;82.10;;;;;;5082859;28;20152;-66
2021/03/24 10:00:54;;;;;;;36.50;14.38;;;10.70;82.20;;;;;;5077229;28;20027;-64
2021/03/24 10:03:33;;;;;;;27.85;10.48;;;10.70;82.30;;;;;;5087488;28;20490;-64
2021/03/24 10:06:01;;;;;;;38.45;13.82;;;10.70;82.40;;;;;;5092071;28;20060;-64
2021/03/24 10:08:47;;;;;;;21.27;11.88;;;10.70;82.50;;;;;;5092375;28;20395;-64
2021/03/24 10:11:29;;;;;;;29.67;13.02;;;10.80;82.40;;;;;;5089103;28;20035;-64
2021/03/24 10:14:03;;;;;;;35.22;14.70;;;10.90;82.50;;;;;;5092812;28;20088;-65
2021/03/24 10:16:33;;;;;;;35.63;13.43;;;10.90;82.40;;;;;;5092492;28;20100;-64
2021/03/24 10:19:10;;;;;;;31.65;12.05;;;11.00;82.40;;;;;;5091598;28;20016;-64
2021/03/24 10:21:49;;;;;;;25.73;11.63;;;11.00;82.40;;;;;;5082096;28;20032;-64
2021/03/24 10:24:25;;;;;;;39.65;14.40;;;11.00;82.40;;;;;;5081550;28;20036;-64
2021/03/24 10:27:05;;;;;;;34.17;14.63;;;11.10;82.40;;;;;;5083827;28;20542;-64
2021/03/24 10:29:48;;;;;;;21.75;11.32;;;11.10;82.30;;;;;;5087913;28;20541;-64
2021/03/24 10:32:35;;;;;;;36.60;14.55;;;11.20;82.90;;;;;;5091941;28;20028;-68
2021/03/24 10:35:25;;;;;;;15.40;8.38;;;11.20;82.20;;;;;;5055453;28;20028;-65
2021/03/24 10:38:11;;;;;;;14.75;8.52;;;11.30;82.10;;;;;;5086435;28;20119;-64
2021/03/24 10:40:44;;;;;;;16.83;7.38;;;11.30;82.10;;;;;;5091469;28;20024;-64
2021/03/24 10:43:38;;;;;;;23.45;10.50;;;11.30;82.10;;;;;;5088080;28;20117;-66
2021/03/24 10:46:32;;;;;;;18.60;9.38;;;11.40;82.20;;;;;;5086364;28;20115;-66
2021/03/24 10:49:09;;;;;;;11.35;6.18;;;11.40;82.20;;;;;;5044663;28;20119;-66
2021/03/24 10:51:47;;;;;;;22.23;10.48;;;11.40;82.20;;;;;;5090117;28;20060;-66
2021/03/24 10:54:20;;;;;;;40.65;17.17;;;11.50;82.20;;;;;;5086970;28;20056;-66
2021/03/24 10:57:02;;;;;;;37.60;16.23;;;11.50;82.10;;;;;;5087113;28;20487;-66
2021/03/24 10:59:47;;;;;;;21.20;11.52;;;11.60;81.90;;;;;;5073879;28;20024;-66
2021/03/24 11:02:26;;;;;;;39.92;13.25;;;11.60;82.20;;;;;;5079841;28;20032;-66
2021/03/24 11:05:14;;;;;;;40.70;14.38;;;11.70;82.20;;;;;;5075210;28;20033;-66
2021/03/24 11:07:45;;;;;;;21.10;11.40;;;11.70;82.00;;;;;;5075572;28;20790;-66
2021/03/24 11:10:37;;;;;;;26.55;10.73;;;11.80;82.00;;;;;;5076180;28;20040;-67
2021/03/24 11:13:15;;;;;;;11.05;3.58;;;11.80;82.00;;;;;;5086185;28;20464;-75
2021/03/24 11:15:56;;;;;;;23.73;11.15;;;11.90;82.00;;;;;;5079397;28;20040;-64
2021/03/24 11:18:32;;;;;;;22.63;10.85;;;11.90;82.10;;;;;;5080548;28;20036;-64
2021/03/24 11:21:09;;;;;;;20.42;10.10;;;11.90;81.90;;;;;;5085660;28;20027;-63
2021/03/24 11:23:42;;;;;;;17.77;9.68;;;12.00;82.00;;;;;;5092844;28;20411;-64
2021/03/24 11:26:16;;;;;;;24.17;12.38;;;12.10;82.00;;;;;;5092328;28;20027;-65
2021/03/24 11:28:46;;;;;;;26.65;9.95;;;12.10;81.80;;;;;;5092480;28;20040;-65
2021/03/24 11:31:17;;;;;;;29.42;13.18;;;12.20;81.90;;;;;;5086299;28;20111;-64
2021/03/24 11:33:48;;;;;;;21.55;11.57;;;12.20;82.30;;;;;;5084348;28;20778;-65
2021/03/24 11:36:31;;;;;;;29.58;13.90;;;12.30;81.60;;;;;;5079734;28;20155;-67
2021/03/24 11:39:15;;;;;;;15.52;8.93;;;12.30;81.50;;;;;;5075286;28;20032;-65
2021/03/24 11:41:42;;;;;;;36.90;15.32;;;12.40;81.30;;;;;;5086745;28;20033;-66
2021/03/24 11:44:19;;;;;;;19.05;9.25;;;12.40;81.50;;;;;;5087815;28;20032;-66
2021/03/24 11:46:45;;;;;;;16.13;7.32;;;12.40;81.60;;;;;;5078068;28;20033;-64
2021/03/24 11:49:29;;;;;;;17.85;8.65;;;12.40;81.70;;;;;;5075806;28;20131;-65
2021/03/24 11:51:57;;;;;;;34.13;15.38;;;12.50;81.70;;;;;;5078817;28;20032;-65
2021/03/24 11:54:37;;;;;;;23.23;10.07;;;12.50;81.60;;;;;;5081135;28;20032;-65
2021/03/24 11:57:31;;;;;;;39.83;15.93;;;12.60;81.60;;;;;;5088697;28;20122;-65
2021/03/24 11:59:56;;;;;;;30.42;14.10;;;12.70;81.60;;;;;;5089898;28;20039;-64
2021/03/24 12:02:31;;;;;;;35.78;17.08;;;12.70;81.30;;;;;;5089167;28;20028;-64
2021/03/24 12:05:14;;;;;;;36.05;12.35;;;12.80;81.70;;;;;;5087894;28;20066;-64
2021/03/24 12:08:20;;;;;;;23.65;10.48;;;12.90;81.80;;;;;;5086484;28;20055;-64
2021/03/24 12:11:00;;;;;;;20.80;10.25;;;12.90;81.90;;;;;;5086303;28;20090;-64
2021/03/24 12:13:34;;;;;;;35.72;15.63;;;13.00;81.90;;;;;;5088914;28;20024;-64
2021/03/24 12:16:02;;;;;;;31.27;13.85;;;13.00;81.80;;;;;;5090085;28;20028;-65
2021/03/24 12:18:50;;;;;;;15.30;8.15;;;13.10;81.60;;;;;;5089198;28;20475;-66
2021/03/24 12:21:38;;;;;;;22.20;11.45;;;13.20;82.00;;;;;;5084812;28;20032;-65
2021/03/24 12:24:28;;;;;;;24.92;11.18;;;13.20;81.60;;;;;;5088904;28;20034;-65
2021/03/24 12:27:13;;;;;;;26.23;12.02;;;13.30;81.90;;;;;;5087245;28;20464;-64
2021/03/24 12:29:42;;;;;;;17.63;6.88;;;13.40;81.40;;;;;;5087282;28;20040;-64
2021/03/24 12:32:20;;;;;;;8.40;4.90;;;13.40;80.90;;;;;;5091396;28;20024;-64
2021/03/24 12:34:46;;;;;;;18.63;9.45;;;13.40;81.00;;;;;;5087925;28;20085;-64
2021/03/24 12:37:45;;;;;;;21.35;9.20;;;13.50;80.90;;;;;;5089002;28;20036;-64
2021/03/24 12:40:20;;;;;;;16.25;8.13;;;13.60;80.80;;;;;;5046181;28;20344;-65
2021/03/24 12:42:48;;;;;;;26.65;13.25;;;13.60;80.70;;;;;;5089552;28;20028;-65
2021/03/24 12:45:39;;;;;;;22.15;8.90;;;13.60;80.60;;;;;;5084537;28;20495;-65
2021/03/24 12:48:08;;;;;;;10.40;5.15;;;13.70;80.80;;;;;;5080848;28;20115;-65
2021/03/24 12:50:47;;;;;;;23.38;8.43;;;13.80;80.80;;;;;;5075841;28;20024;-65
2021/03/24 12:53:24;;;;;;;23.65;11.73;;;13.80;80.70;;;;;;5070563;28;20028;-65
2021/03/24 12:56:13;;;;;;;14.02;8.02;;;14.00;80.70;;;;;;5081498;28;20085;-65
2021/03/24 12:58:49;;;;;;;26.77;13.38;;;14.00;80.00;;;;;;5073151;28;20047;-65
2021/03/24 13:01:34;;;;;;;13.38;7.85;;;14.00;79.80;;;;;;5080961;28;20716;-64
2021/03/24 13:04:18;;;;;;;23.23;10.85;;;14.10;79.50;;;;;;5080901;28;20119;-65
2021/03/24 13:07:03;;;;;;;23.52;8.52;;;14.10;79.70;;;;;;5084675;28;20085;-66
2021/03/24 13:09:45;;;;;;;30.48;14.50;;;14.20;79.90;;;;;;5073473;28;20028;-67
2021/03/24 13:12:25;;;;;;;29.92;11.20;;;14.20;79.50;;;;;;5083125;28;20059;-67
2021/03/24 13:15:17;;;;;;;26.88;11.90;;;14.30;79.30;;;;;;5089922;28;20089;-67
2021/03/24 13:17:59;;;;;;;26.92;11.50;;;14.30;79.40;;;;;;4981494;28;20055;-68
2021/03/24 13:20:34;;;;;;;22.48;11.93;;;14.40;79.20;;;;;;5073517;28;20070;-68
2021/03/24 13:23:18;;;;;;;25.08;11.70;;;14.40;78.50;;;;;;5076432;28;20025;-68